• Join FlightAware (Why Join?)
  • Login
  • US Flag 
10:49PM EDT


 

Airport Tracker/Info


-or-


 

Live Flight TrackerFlight Track Log ✈ UAL4457 ✈ 30-Apr-2013 ✈ KLEX - KIAH

Flight Track Log - Related Links

Times and Time Zones

All times are in EDT time to prevent confusion due to time zone crossing. See the UAL4457 flight status page for this flight to view local times or setup timezone preferences in your user account.

Time Position Orientation Groundspeed Altitude Reporting Facility
EDT Latitude Longitude Course Direction KTS MPH feet Rate Location/Type
05:24PM 37.9775 -84.6753 224° Southwest 218 251 4,300  Level Indianapolis Center
05:25PM 37.9281 -84.7353 224° Southwest 234 269 7,000 2,340 Climbing Indianapolis Center
05:26PM 37.8993 -84.9391 241° Southwest  Level FlightAware Approximate
05:26PM 37.8908 -84.8239 242° Southwest 277 319 9,200  Level Indianapolis Center
05:27PM 37.8501 -85.0497 241° Southwest  Level FlightAware Approximate
05:27PM 37.8483 -84.9372 245° Southwest 302 348 11,000  Level Indianapolis Center
05:28PM 37.8066 -85.1636 247° West  Level FlightAware Approximate
05:28PM 37.8033 -85.0500 243° Southwest 339 390 13,000  Level Indianapolis Center
05:29PM 37.7561 -85.1708 244° Southwest 374 430 14,400 1,440 Climbing Indianapolis Center
05:30PM 37.7061 -85.2969 243° Southwest 396 456 16,100 1,680 Climbing Indianapolis Center
05:31PM 37.6578 -85.4208 244° Southwest 396 456 17,900 1,800 Climbing Indianapolis Center
05:32PM 37.6044 -85.5544 243° Southwest 400 460 19,900 1,740 Climbing Indianapolis Center
05:33PM 37.5531 -85.6783 242° Southwest 399 459 21,600 1,500 Climbing Indianapolis Center
05:34PM 37.5181 -85.8106 252° West 396 456 23,100 1,500 Climbing Indianapolis Center
05:35PM 37.4825 -85.9708 254° West 407 468 24,700 1,320 Climbing Indianapolis Center
05:37PM 37.4508 -86.1081 254° West 407 468 25,900 1,200 Climbing Indianapolis Center
05:38PM 37.3950 -86.2350 241° Southwest 405 466 27,200 960 Climbing Indianapolis Center
05:38PM 37.3503 -86.3417 242° Southwest 412 474 27,800 600 Climbing Memphis Center
05:39PM 37.2981 -86.4694 243° Southwest 418 481 28,400 720 Climbing Memphis Center
05:40PM 37.2436 -86.5997 242° Southwest 424 488 29,300 900 Climbing Memphis Center
05:41PM 37.1892 -86.7272 242° Southwest 424 488 30,300 960 Climbing Memphis Center
05:42PM 37.1344 -86.8547 242° Southwest 424 488 31,300 960 Climbing Memphis Center
05:43PM 37.0797 -86.9844 242° Southwest 424 488 32,300 1,080 Climbing Memphis Center
05:44PM 37.0250 -87.1142 242° Southwest 424 488 33,500 1,200 Climbing Memphis Center
05:45PM 36.9697 -87.2411 241° Southwest 424 488 34,800 1,140 Climbing Memphis Center
05:46PM 36.9128 -87.3756 242° Southwest 419 482 35,800 600 Climbing Memphis Center
05:47PM 36.8594 -87.4994 242° Southwest 413 475 36,000 60 Climbing Memphis Center
05:48PM 36.8039 -87.6231 241° Southwest 413 475 36,000  Level Memphis Center
05:49PM 36.7522 -87.7442 242° Southwest 408 470 36,000  Level Memphis Center
05:50PM 36.6983 -87.8675 241° Southwest 408 470 36,000  Level Memphis Center
05:51PM 36.6467 -87.9856 241° Southwest 403 464 36,000  Level Memphis Center
05:52PM 36.6469 -88.1200 270° West 390 449 36,000  Level Memphis Center
05:53PM 36.6722 -88.2486 284° West 370 426 36,000  Level Memphis Center
05:54PM 36.6492 -88.3783 258° West 376 433 36,000  Level Memphis Center
05:55PM 36.6242 -88.5108 257° West 381 438 36,000  Level Memphis Center
05:56PM 36.5992 -88.6433 257° West 392 451 36,000  Level Memphis Center
05:57PM 36.5758 -88.7706 257° West 392 451 36,000  Level Memphis Center
05:58PM 36.5503 -88.8975 256° West 392 451 36,000  Level Memphis Center
05:59PM 36.5244 -89.0272 256° West 387 445 36,000  Level Memphis Center
06:00PM 36.5031 -89.1514 258° West 387 445 36,000  Level Memphis Center
06:01PM 36.4769 -89.2833 256° West 382 440 36,000  Level Memphis Center
06:02PM 36.4572 -89.4022 258° West 387 445 36,000  Level Memphis Center
06:03PM 36.4289 -89.5317 255° West 395 455 36,000  Level Memphis Center
06:04PM 36.4025 -89.6531 255° West 390 449 36,000  Level Memphis Center
06:05PM 36.3761 -89.7797 256° West 385 443 36,000  Level Memphis Center
06:06PM 36.3517 -89.9086 257° West 379 436 36,000  Level Memphis Center
06:07PM 36.3250 -90.0350 255° West 379 436 36,000  Level Memphis Center
06:08PM 36.3003 -90.1586 256° West 379 436 36,000  Level Memphis Center
06:09PM 36.2733 -90.2900 256° West 384 442 36,000  Level Memphis Center
06:10PM 36.2461 -90.4214 256° West 384 442 36,000  Level Memphis Center
06:11PM 36.2211 -90.5472 256° West 384 442 36,000  Level Memphis Center
06:12PM 36.1936 -90.6783 255° West 389 448 36,000  Level Memphis Center
06:13PM 36.1661 -90.8094 255° West 394 453 36,000  Level Memphis Center
06:14PM 36.1364 -90.9431 255° West 399 459 36,000  Level Memphis Center
06:15PM 36.1086 -91.0711 255° West 394 453 36,000  Level Memphis Center
06:16PM 36.0808 -91.1994 255° West 394 453 36,000  Level Memphis Center
06:17PM 36.0547 -91.3325 256° West 394 453 36,000  Level Memphis Center
06:18PM 36.0244 -91.4606 254° West 394 453 36,000  Level Memphis Center
06:19PM 35.9983 -91.5911 256° West 394 453 36,000  Level Memphis Center
06:20PM 35.9697 -91.7267 255° West 394 453 36,000  Level Memphis Center
06:21PM 35.9453 -91.8619 257° West 394 453 36,000  Level Memphis Center
06:22PM 35.9144 -91.9947 254° West 394 453 36,000  Level Memphis Center
06:23PM 35.8833 -92.1275 254° West 399 459 36,000  Level Memphis Center
06:24PM 35.8542 -92.2625 255° West 399 459 36,000  Level Memphis Center
06:25PM 35.8250 -92.3975 255° West 404 465 36,000  Level Memphis Center
06:26PM 35.7936 -92.5325 254° West 409 471 36,000  Level Memphis Center
06:27PM 35.7619 -92.6697 254° West 415 478 36,000  Level Memphis Center
06:28PM 35.7322 -92.8044 255° West 415 478 36,000  Level Memphis Center
06:29PM 35.7022 -92.9442 255° West 415 478 36,000  Level Memphis Center
06:30PM 35.6703 -93.0786 254° West 415 478 36,000  Level Memphis Center
06:31PM 35.6356 -93.2358 255° West 420 483 36,000  Level Memphis Center
06:32PM 35.6031 -93.3750 254° West 420 483 36,000  Level Memphis Center
06:33PM 35.5686 -93.5042 252° West 415 478 36,000  Level Memphis Center
06:34PM 35.5378 -93.6433 255° West 415 478 36,000  Level Memphis Center
06:35PM 35.5047 -93.7822 254° West 415 478 36,000  Level Memphis Center
06:36PM 35.4719 -93.9186 254° West 415 478 36,000  Level Memphis Center
06:37PM 35.4386 -94.0547 253° West 415 478 36,000  Level Memphis Center
06:38PM 35.4053 -94.1933 254° West 415 478 36,000  Level Memphis Center
06:39PM 35.3492 -94.3156 241° Southwest 407 468 36,000  Level Memphis Center
06:40PM 35.2608 -94.4078 220° Southwest 413 475 36,000  Level Memphis Center
06:42PM 35.0950 -94.5919 222° Southwest 440 506 36,000  Level Fort Worth Center
06:43PM 35.0014 -94.6939 222° Southwest 433 498 36,000  Level Fort Worth Center
06:44PM 34.9136 -94.7878 221° Southwest 433 498 36,000  Level Fort Worth Center
06:45PM 34.8281 -94.8842 223° Southwest 425 489 36,000  Level Fort Worth Center
06:46PM 34.7181 -94.9125 192° South 398 458 36,000  Level Fort Worth Center
06:47PM 34.6217 -94.9911 214° Southwest 408 470 36,000  Level Fort Worth Center
06:48PM 34.5358 -95.0892 223° Southwest 420 483 36,000  Level Fort Worth Center
06:49PM 34.4478 -95.1897 223° Southwest 428 493 36,000  Level Fort Worth Center
06:50PM 34.3600 -95.2878 223° Southwest 434 499 36,000  Level Fort Worth Center
06:51PM 34.2758 -95.3828 223° Southwest 434 499 36,000  Level Fort Worth Center
06:52PM 34.1897 -95.4778 222° Southwest 424 488 36,000  Level Fort Worth Center
06:53PM 34.1014 -95.5750 222° Southwest 424 488 36,000  Level Fort Worth Center
06:54PM 34.0172 -95.6694 223° Southwest 424 488 36,000  Level Fort Worth Center
06:55PM 33.9308 -95.7664 223° Southwest 429 494 36,000  Level Fort Worth Center
06:56PM 33.8467 -95.8606 223° Southwest 429 494 36,000  Level Fort Worth Center
06:57PM 33.7622 -95.9544 223° Southwest 422 486 36,000  Level Fort Worth Center
06:58PM 33.6839 -96.0406 222° Southwest 422 486 36,000  Level Fort Worth Center
06:59PM 33.5889 -96.1442 222° Southwest 422 486 36,000  Level Fort Worth Center
07:00PM 33.5103 -96.2300 222° Southwest 427 491 36,000  Level Fort Worth Center
07:01PM 33.4194 -96.3308 223° Southwest 422 486 36,000  Level Fort Worth Center
07:02PM 33.3431 -96.4164 223° Southwest 422 486 36,000  Level Fort Worth Center
07:03PM 33.2497 -96.5192 223° Southwest 422 486 36,000  Level Fort Worth Center
07:04PM 33.1669 -96.6119 223° Southwest 416 479 36,000  Level Fort Worth Center
07:05PM 33.0794 -96.6522 201° Southwest 416 479 36,000  Level Fort Worth Center
07:06PM 32.9353 -96.6361 175° South 409 471 36,000  Level Fort Worth Center
07:07PM 32.8267 -96.6272 176° South 424 488 36,000  Level Fort Worth Center
07:08PM 32.6994 -96.6161 176° South 424 488 36,000 -180 Level Fort Worth Center
07:09PM 32.5928 -96.6069 176° South 424 488 35,700 -660 Descending Fort Worth Center
07:10PM 32.4633 -96.5958 176° South 424 488 34,700 -960 Descending Fort Worth Center
07:11PM 32.3547 -96.5869 176° South 424 488 33,800 -900 Descending Fort Worth Center
07:12PM 32.2461 -96.5783 176° South 429 494 32,900 -1,020 Descending Fort Worth Center
07:13PM 32.1125 -96.5672 176° South 438 504 31,800 -1,080 Descending Fort Worth Center
07:14PM 31.9767 -96.5561 176° South 445 512 30,800 -1,020 Descending Fort Worth Center
07:15PM 31.8514 -96.5450 176° South 450 518 29,800 -600 Descending Fort Worth Center
07:18PM 31.6000 -96.5211 175° South 459 528 29,000 -300 Descending Houston Center
07:19PM 31.4733 -96.4953 170° South 458 527 29,000 -120 Level Houston Center
07:20PM 31.3239 -96.4411 163° South 466 536 28,800 -900 Descending Houston Center
07:21PM 31.2008 -96.3936 162° South 468 539 27,200 -2,040 Descending Houston Center
07:22PM 31.0769 -96.3428 161° South 466 536 24,700 -2,640 Descending Houston Center
07:23PM 30.9550 -96.2961 162° South 456 525 21,800 -2,700 Descending Houston Center
07:24PM 30.8353 -96.2528 163° South 447 514 19,200 -2,520 Descending Houston Center
07:25PM 30.7200 -96.2144 164° South 431 496 16,700 -2,340 Descending Houston Center
07:26PM 30.6061 -96.1817 166° South 419 482 14,400 -2,460 Descending Houston Center
07:26PM 30.5378 -96.1633 167° South 397 457 12,800 -2,220 Descending Houston Center
07:27PM 30.4994 -96.1533 167° South 391 450 12,200 -1,620 Descending Houston Center
07:27PM 30.4567 -96.1483 174° South 343 395 11,500 -1,800 Descending Houston Center
07:28PM 30.4056 -96.1356 168° South 343 395 10,400 -1,380 Descending Houston Center
07:28PM 30.3650 -96.1056 147° Southeast 302 348 10,000 -300 Descending Houston Center
07:29PM 30.3325 -96.0831 149° Southeast 305 351 10,100  Climbing Houston Center
07:29PM 30.2950 -96.0481 141° Southeast 305 351 10,000  Descending Houston Center
07:30PM 30.2708 -96.0189 134° Southeast 303 349 10,100  Climbing Houston Center
07:30PM 30.2364 -95.9750 132° Southeast 311 358 10,000 -240 Descending Houston Center
07:31PM 30.2183 -95.9428 123° Southeast 304 350 9,900 -840 Descending Houston Center
07:31PM 30.1914 -95.8933 122° Southeast 294 338 9,200 -1,980 Descending Houston Center
07:32PM 30.1656 -95.8478 123° Southeast 296 341 7,900 -2,400 Descending Houston Center
07:32PM 30.1375 -95.8294 151° Southeast 280 322 6,800 -2,460 Descending Houston Center
07:33PM 30.1069 -95.7931 134° Southeast 276 318 5,400 -2,400 Descending Houston Center
07:33PM 30.0794 -95.7661 140° Southeast 265 305 4,400 -1,320 Descending Houston Center
07:34PM 30.0511 -95.7397 141° Southeast 260 299 4,100 -1,140 Descending Houston Center
07:34PM 30.0247 -95.7172 144° Southeast 246 283 3,300 -1,080 Descending Houston Center
07:35PM 30.0019 -95.6886 133° Southeast 244 281 3,000 -240 Descending Houston Center
07:35PM 30.0003 -95.6525 93° East 220 253 3,100 60 Climbing Houston Center
07:36PM 29.9983 -95.6150 93° East 230 265 3,100 -120 Level Houston Center
07:36PM 29.9961 -95.5856 95° East 202 232 3,000  Descending Houston Center
07:37PM 29.9933 -95.5547 96° East 199 229 3,100 -120 Climbing Houston Center
07:37PM 29.9931 -95.5278 91° East 169 194 2,900 -600 Descending Houston Center
07:38PM 29.9925 -95.4986 91° East 181 208 2,500 -900 Descending Houston Center
07:38PM 29.9925 -95.4750 90° East 178 205 2,100 -900 Descending Houston Center
07:39PM 29.9939 -95.4411 87° East 180 207 1,600 -720 Descending Houston Center